createdAt,value
2018-04-12T00:02:26.486Z,21.73
2018-04-12T00:04:54.052Z,21.43
2018-04-12T00:07:21.653Z,24.50
2018-04-12T00:09:49.199Z,27.03
2018-04-12T00:12:16.814Z,28.40
2018-04-12T00:14:44.471Z,30.80
2018-04-12T00:17:12.095Z,33.60
2018-04-12T00:19:39.660Z,27.87
2018-04-12T00:22:07.247Z,30.17
2018-04-12T00:24:34.962Z,30.53
2018-04-12T00:27:03.387Z,31.27
2018-04-12T00:29:31.007Z,32.83
2018-04-12T00:31:58.563Z,35.13
2018-04-12T00:34:26.111Z,32.77
2018-04-12T00:36:53.740Z,34.93
2018-04-12T00:39:21.304Z,29.97
2018-04-12T00:41:48.867Z,32.57
2018-04-12T00:44:16.543Z,32.20
2018-04-12T00:46:44.119Z,29.57
2018-04-12T00:49:11.666Z,31.87
2018-04-12T00:51:39.239Z,28.20
2018-04-12T00:54:07.552Z,25.13
2018-04-12T00:56:35.887Z,21.83
2018-04-12T00:59:03.463Z,28.87
2018-04-12T01:01:31.048Z,27.27
2018-04-12T01:03:58.608Z,26.77
2018-04-12T01:06:26.170Z,25.87
2018-04-12T01:08:53.831Z,25.63
2018-04-12T01:11:21.390Z,24.83
2018-04-12T01:13:49.024Z,27.60
2018-04-12T01:16:16.588Z,26.50
2018-04-12T01:18:44.167Z,25.80
2018-04-12T01:21:11.786Z,28.47
2018-04-12T01:23:39.350Z,31.43
2018-04-12T01:26:06.930Z,35.60
2018-04-12T01:28:34.544Z,35.73
2018-04-12T01:31:02.126Z,33.80
2018-04-12T01:33:29.690Z,28.73
2018-04-12T01:35:57.314Z,22.33
2018-04-12T01:38:24.874Z,26.60
2018-04-12T01:40:53.195Z,29.43
2018-04-12T01:43:20.788Z,28.67
2018-04-12T01:45:48.381Z,23.53
2018-04-12T01:48:16.785Z,29.13
2018-04-12T01:50:44.345Z,24.57
2018-04-12T01:53:11.937Z,23.50
2018-04-12T01:55:39.495Z,19.80
2018-04-12T01:58:07.041Z,20.33
2018-04-12T02:00:34.633Z,21.40
2018-04-12T02:03:02.852Z,22.50
2018-04-12T02:05:30.432Z,26.03
2018-04-12T02:07:57.993Z,26.60
2018-04-12T02:10:25.574Z,25.30
2018-04-12T02:12:53.159Z,25.73
2018-04-12T02:15:20.753Z,26.67
2018-04-12T02:17:48.343Z,26.63
2018-04-12T02:20:16.694Z,27.63
2018-04-12T02:22:44.308Z,25.57
2018-04-12T02:25:11.883Z,33.03
2018-04-12T02:27:39.440Z,31.83
2018-04-12T02:30:07.058Z,29.33
2018-04-12T02:32:34.629Z,27.67
2018-04-12T02:35:02.224Z,27.20
2018-04-12T02:37:29.786Z,26.90
2018-04-12T02:39:58.151Z,28.83
2018-04-12T02:42:25.710Z,30.20
2018-04-12T02:44:53.335Z,32.70
2018-04-12T02:47:20.897Z,26.17
2018-04-12T02:49:48.449Z,21.90
2018-04-12T02:52:16.025Z,23.40
2018-04-12T02:54:43.576Z,21.80
2018-04-12T02:57:11.158Z,22.70
2018-04-12T02:59:38.716Z,26.33
2018-04-12T03:02:06.312Z,21.40
2018-04-12T03:04:34.670Z,24.80
2018-04-12T03:07:02.228Z,23.97
2018-04-12T03:09:29.842Z,21.87
2018-04-12T03:11:57.404Z,31.40
2018-04-12T03:14:24.976Z,33.27
2018-04-12T03:16:52.571Z,28.20
2018-04-12T03:19:20.177Z,26.73
2018-04-12T03:21:47.733Z,27.90
2018-04-12T03:24:15.274Z,29.73
2018-04-12T03:26:43.722Z,26.47
2018-04-12T03:29:11.276Z,24.77
2018-04-12T03:31:38.866Z,24.90
2018-04-12T03:34:06.419Z,24.57
2018-04-12T03:36:34.126Z,24.17
2018-04-12T03:39:02.433Z,26.23
2018-04-12T03:41:29.993Z,24.73
2018-04-12T03:43:57.601Z,28.77
2018-04-12T03:46:25.921Z,29.23
2018-04-12T03:48:53.465Z,34.57
2018-04-12T03:51:21.104Z,28.30
2018-04-12T03:53:49.441Z,27.07
2018-04-12T03:56:17.029Z,26.40
2018-04-12T03:58:44.586Z,28.23
2018-04-12T04:01:12.961Z,26.60
2018-04-12T04:03:40.551Z,26.53
2018-04-12T04:06:08.911Z,28.40
2018-04-12T04:08:36.462Z,29.37
2018-04-12T04:11:04.080Z,27.90
2018-04-12T04:13:31.636Z,24.30
2018-04-12T04:16:11.013Z,29.77
2018-04-12T04:18:50.253Z,26.83
2018-04-12T04:21:17.887Z,31.80
2018-04-12T04:23:45.458Z,27.27
2018-04-12T04:26:13.011Z,29.87
2018-04-12T04:28:40.566Z,25.97
2018-04-12T04:31:08.150Z,26.47
2018-04-12T04:33:35.753Z,31.53
2018-04-12T04:36:03.306Z,29.80
2018-04-12T04:38:30.963Z,32.50
2018-04-12T04:40:59.428Z,28.00
2018-04-12T04:43:26.992Z,27.90
2018-04-12T04:45:55.314Z,29.10
2018-04-12T04:48:22.982Z,33.13
2018-04-12T04:50:50.537Z,23.87
2018-04-12T04:53:18.103Z,30.13
2018-04-12T04:55:46.468Z,32.40
2018-04-12T04:58:14.039Z,26.87
2018-04-12T05:00:41.652Z,24.47
2018-04-12T05:03:09.211Z,28.83
2018-04-12T05:05:36.769Z,27.60
2018-04-12T05:08:04.357Z,30.37
2018-04-12T05:10:31.924Z,28.37
2018-04-12T05:12:59.469Z,28.60
2018-04-12T05:15:27.056Z,32.47
2018-04-12T05:17:54.631Z,32.33
2018-04-12T05:20:22.209Z,34.60
2018-04-12T05:22:49.890Z,33.47
2018-04-12T05:25:17.458Z,28.27
2018-04-12T05:27:45.057Z,30.37
2018-04-12T05:30:12.650Z,27.97
2018-04-12T05:32:40.235Z,29.70
2018-04-12T05:35:07.833Z,30.27
2018-04-12T05:37:35.427Z,30.73
2018-04-12T05:40:02.981Z,26.97
2018-04-12T05:42:30.538Z,27.80
2018-04-12T05:44:58.256Z,27.40
2018-04-12T05:47:25.803Z,29.33
2018-04-12T05:49:53.361Z,26.83
2018-04-12T05:52:20.943Z,32.07
2018-04-12T05:54:49.309Z,29.40
2018-04-12T05:57:16.861Z,34.00
2018-04-12T05:59:44.467Z,28.97
2018-04-12T06:02:12.099Z,26.87
2018-04-12T06:04:40.409Z,30.50
2018-04-12T06:07:07.952Z,25.87
2018-04-12T06:09:35.529Z,32.43
2018-04-12T06:12:03.128Z,27.73
2018-04-12T06:14:30.669Z,30.80
2018-04-12T06:16:58.240Z,29.23
2018-04-12T06:19:25.840Z,28.67
2018-04-12T06:21:54.185Z,28.63
2018-04-12T06:24:21.734Z,28.43
2018-04-12T06:26:49.313Z,30.00
2018-04-12T06:29:16.869Z,27.60
2018-04-12T06:31:44.454Z,28.03
2018-04-12T06:34:12.801Z,34.83
2018-04-12T06:36:40.358Z,30.67
2018-04-12T06:39:07.976Z,31.67
2018-04-12T06:41:35.535Z,34.87
2018-04-12T06:44:03.099Z,31.10
2018-04-12T06:46:30.699Z,29.13
2018-04-12T06:48:58.256Z,31.20
2018-04-12T06:51:26.179Z,31.00
2018-04-12T06:53:53.791Z,28.53
2018-04-12T06:56:21.352Z,31.87
2018-04-12T06:58:48.947Z,31.33
2018-04-12T07:01:16.507Z,29.40
2018-04-12T07:03:44.835Z,31.30
2018-04-12T07:06:12.459Z,33.83
2018-04-12T07:08:40.022Z,30.40
2018-04-12T07:11:08.334Z,28.27
2018-04-12T07:13:35.953Z,27.60
2018-04-12T07:16:04.286Z,26.80
2018-04-12T07:18:31.833Z,27.33
2018-04-12T07:20:59.442Z,27.77
2018-04-12T07:23:27.009Z,25.63
2018-04-12T07:25:55.336Z,25.27
2018-04-12T07:28:22.942Z,25.17
2018-04-12T07:30:51.261Z,22.70
2018-04-12T07:33:18.843Z,22.03
2018-04-12T07:35:46.395Z,23.60
2018-04-12T07:38:13.995Z,20.23
2018-04-12T07:40:41.605Z,19.83
2018-04-12T07:43:09.159Z,19.07
2018-04-12T07:45:36.726Z,18.73
2018-04-12T07:48:04.369Z,18.43
2018-04-12T07:50:31.929Z,20.20
2018-04-12T07:52:59.527Z,19.33
2018-04-12T07:55:27.105Z,20.10
2018-04-12T07:57:54.693Z,23.60
2018-04-12T08:00:23.007Z,20.03
2018-04-12T08:02:50.594Z,16.97
2018-04-12T08:05:18.194Z,15.77
2018-04-12T08:07:45.760Z,15.33
2018-04-12T08:10:13.358Z,16.10
2018-04-12T08:12:40.935Z,14.43
2018-04-12T08:15:08.491Z,15.57
2018-04-12T08:17:36.043Z,15.40
2018-04-12T08:20:03.637Z,18.30
2018-04-12T08:22:31.194Z,16.73
2018-04-12T08:24:58.775Z,11.90
2018-04-12T08:27:27.085Z,12.90
2018-04-12T08:29:54.690Z,12.40
2018-04-12T08:32:22.237Z,9.67
2018-04-12T08:34:49.778Z,11.77
2018-04-12T08:37:17.367Z,14.97
2018-04-12T08:39:44.908Z,16.47
2018-04-12T08:42:12.523Z,14.40
2018-04-12T08:44:40.071Z,14.20
2018-04-12T08:47:08.410Z,13.50
2018-04-12T08:49:36.007Z,17.07
2018-04-12T08:52:03.619Z,17.13
2018-04-12T08:54:31.231Z,12.63
2018-04-12T08:56:59.573Z,14.37
2018-04-12T08:59:27.174Z,15.77
2018-04-12T09:01:55.538Z,11.53
2018-04-12T09:04:23.234Z,11.90
2018-04-12T09:06:50.830Z,15.73
2018-04-12T09:09:18.491Z,13.67
2018-04-12T09:11:46.046Z,10.43
2018-04-12T09:14:13.662Z,12.63
2018-04-12T09:16:41.232Z,12.30
2018-04-12T09:19:08.842Z,14.07
2018-04-12T09:21:37.164Z,15.03
2018-04-12T09:24:05.489Z,12.77
2018-04-12T09:26:33.213Z,15.40
2018-04-12T09:29:00.768Z,9.77
2018-04-12T09:31:28.327Z,14.27
2018-04-12T09:33:55.931Z,9.00
2018-04-12T09:36:23.480Z,9.33
2018-04-12T09:38:51.090Z,10.27
2018-04-12T09:41:19.133Z,8.80
2018-04-12T09:43:46.671Z,7.73
2018-04-12T09:46:14.301Z,7.10
2018-04-12T09:48:41.832Z,9.23
2018-04-12T09:51:09.390Z,12.67
2018-04-12T09:53:36.992Z,7.27
2018-04-12T09:56:04.550Z,6.90
2018-04-12T09:58:32.103Z,8.37
2018-04-12T10:01:00.467Z,11.50
2018-04-12T10:03:28.819Z,9.70
2018-04-12T10:06:02.033Z,8.00
2018-04-12T10:08:29.630Z,12.70
2018-04-12T10:10:57.240Z,11.47
2018-04-12T10:13:24.873Z,9.63
2018-04-12T10:15:52.434Z,9.37
2018-04-12T10:18:20.005Z,10.07
2018-04-12T10:20:47.614Z,6.63
2018-04-12T10:23:15.239Z,8.60
2018-04-12T10:25:42.790Z,8.80
2018-04-12T10:28:10.382Z,10.13
2018-04-12T10:30:37.961Z,9.90
2018-04-12T10:33:06.302Z,7.83
2018-04-12T10:35:33.915Z,9.23
2018-04-12T10:38:01.490Z,11.10
2018-04-12T10:40:29.033Z,10.57
2018-04-12T10:42:57.283Z,8.50
2018-04-12T10:45:25.666Z,10.30
2018-04-12T10:47:54.005Z,9.07
2018-04-12T10:50:22.341Z,13.00
2018-04-12T10:52:49.956Z,9.37
2018-04-12T10:55:17.519Z,8.63
2018-04-12T10:57:45.107Z,8.93
2018-04-12T11:00:12.686Z,10.93
2018-04-12T11:02:40.294Z,8.53
2018-04-12T11:05:07.866Z,7.17
2018-04-12T11:07:36.251Z,11.53
2018-04-12T11:10:03.804Z,9.30
2018-04-12T11:12:32.193Z,8.27
2018-04-12T11:14:59.794Z,8.77
2018-04-12T11:17:27.433Z,9.80
2018-04-12T11:19:55.773Z,10.50
2018-04-12T11:22:23.358Z,10.47
2018-04-12T11:24:50.947Z,10.43
2018-04-12T11:27:18.545Z,8.37
2018-04-12T11:29:46.114Z,9.17
2018-04-12T11:32:13.713Z,8.87
2018-04-12T11:34:41.340Z,8.07
2018-04-12T11:37:08.973Z,6.33
2018-04-12T11:39:36.551Z,10.63
2018-04-12T11:42:04.102Z,6.90
2018-04-12T11:44:31.898Z,7.60
2018-04-12T11:46:59.503Z,8.33
2018-04-12T11:49:27.062Z,8.77
2018-04-12T11:51:54.625Z,6.83
2018-04-12T11:54:22.224Z,7.97
2018-04-12T11:56:49.809Z,7.30
2018-04-12T11:59:17.436Z,10.27
2018-04-12T12:01:45.045Z,14.37
2018-04-12T12:04:12.577Z,7.50
2018-04-12T12:06:40.150Z,7.83
2018-04-12T12:09:07.706Z,8.47
2018-04-12T12:11:35.294Z,6.83
2018-04-12T12:14:03.621Z,9.67
2018-04-12T12:16:31.242Z,5.60
2018-04-12T12:18:58.787Z,8.00
2018-04-12T12:21:27.100Z,8.70
2018-04-12T12:23:54.725Z,10.20
2018-04-12T12:26:23.107Z,6.13
2018-04-12T12:28:51.444Z,9.47
2018-04-12T12:31:19.000Z,8.80
2018-04-12T12:33:46.619Z,11.43
2018-04-12T12:36:14.206Z,8.13
2018-04-12T12:38:41.756Z,8.40
2018-04-12T12:41:09.365Z,8.23
2018-04-12T12:43:36.913Z,9.87
2018-04-12T12:46:04.458Z,7.00
2018-04-12T12:48:32.030Z,8.10
2018-04-12T12:50:59.568Z,8.50
2018-04-12T12:53:27.176Z,7.17
2018-04-12T12:55:54.785Z,8.27
2018-04-12T12:58:22.314Z,7.70
2018-04-12T13:00:50.670Z,7.10
2018-04-12T13:03:18.226Z,8.93
2018-04-12T13:05:45.784Z,4.97
2018-04-12T13:08:13.394Z,7.93
2018-04-12T13:10:40.949Z,8.47
2018-04-12T13:13:08.504Z,9.60
2018-04-12T13:15:36.123Z,11.07
2018-04-12T13:18:03.667Z,8.60
2018-04-12T13:20:31.255Z,7.93
2018-04-12T13:22:58.973Z,7.90
2018-04-12T13:25:26.699Z,8.97
2018-04-12T13:27:54.245Z,12.07
2018-04-12T13:30:21.856Z,11.07
2018-04-12T13:32:49.399Z,6.90
2018-04-12T13:35:16.952Z,8.93
2018-04-12T13:37:45.302Z,6.53
2018-04-12T13:40:12.838Z,7.43
2018-04-12T13:42:40.391Z,7.43
2018-04-12T13:45:07.954Z,9.00
2018-04-12T13:47:35.537Z,8.07
2018-04-12T13:50:03.206Z,10.93
2018-04-12T13:52:30.755Z,9.37
2018-04-12T13:54:58.305Z,8.27
2018-04-12T13:57:25.849Z,6.63
2018-04-12T13:59:54.242Z,7.73
2018-04-12T14:02:21.787Z,6.73
2018-04-12T14:04:49.334Z,11.37
2018-04-12T14:07:16.950Z,11.00
2018-04-12T14:09:44.718Z,8.13
2018-04-12T14:12:13.055Z,10.80
2018-04-12T14:14:40.654Z,8.57
2018-04-12T14:17:08.263Z,9.57
2018-04-12T14:19:35.799Z,6.80
2018-04-12T14:22:03.426Z,7.60
2018-04-12T14:24:30.982Z,10.07
2018-04-12T14:26:58.517Z,8.40
2018-04-12T14:29:26.121Z,10.30
2018-04-12T14:31:54.443Z,8.40
2018-04-12T14:34:22.002Z,8.03
2018-04-12T14:36:49.575Z,10.13
2018-04-12T14:39:17.153Z,12.17
2018-04-12T14:41:44.735Z,9.50
2018-04-12T14:44:13.122Z,8.33
2018-04-12T14:46:41.449Z,9.33
2018-04-12T14:49:09.027Z,8.50
2018-04-12T14:51:36.616Z,8.60
2018-04-12T14:54:04.183Z,11.60
2018-04-12T14:56:32.555Z,8.90
2018-04-12T14:59:00.886Z,7.90
2018-04-12T15:01:28.463Z,10.63
2018-04-12T15:03:56.151Z,9.67
2018-04-12T15:06:23.732Z,9.10
2018-04-12T15:08:52.104Z,7.03
2018-04-12T15:11:19.885Z,7.47
2018-04-12T15:13:48.457Z,10.50
2018-04-12T15:16:18.028Z,6.90
2018-04-12T15:18:48.016Z,10.80
2018-04-12T15:21:16.500Z,9.63
2018-04-12T15:23:44.090Z,9.07
2018-04-12T15:26:11.713Z,10.90
2018-04-12T15:28:39.288Z,11.80
2018-04-12T15:31:06.951Z,13.87
2018-04-12T15:33:34.546Z,6.83
2018-04-12T15:36:02.869Z,10.13
2018-04-12T15:38:30.467Z,13.13
2018-04-12T15:40:58.064Z,9.97
2018-04-12T15:43:26.448Z,10.50
2018-04-12T15:45:54.031Z,12.37
2018-04-12T15:48:21.610Z,7.93
2018-04-12T15:50:49.229Z,10.73
2018-04-12T15:53:17.745Z,9.10
2018-04-12T15:55:45.379Z,7.07
2018-04-12T15:58:13.208Z,10.03
2018-04-12T16:00:40.912Z,20.43
2018-04-12T16:03:08.486Z,8.43
2018-04-12T16:05:36.366Z,10.13
2018-04-12T16:08:04.027Z,13.07
2018-04-12T16:10:31.608Z,9.20
2018-04-12T16:12:59.246Z,10.77
2018-04-12T16:15:26.872Z,9.47
2018-04-12T16:17:55.262Z,9.43
2018-04-12T16:20:23.051Z,8.47
2018-04-12T16:22:50.640Z,9.03
2018-04-12T16:25:18.251Z,11.00
2018-04-12T16:27:46.437Z,10.27
2018-04-12T16:30:14.004Z,6.90
2018-04-12T16:32:41.647Z,13.77
2018-04-12T16:35:09.284Z,9.07
2018-04-12T16:37:36.922Z,10.60
2018-04-12T16:40:04.516Z,8.37
2018-04-12T16:42:33.071Z,9.57
2018-04-12T16:45:00.717Z,10.50
2018-04-12T16:47:28.331Z,9.40
2018-04-12T16:49:56.707Z,10.77
2018-04-12T16:52:24.298Z,10.27
2018-04-12T16:54:51.991Z,9.57
2018-04-12T16:57:19.605Z,9.90
2018-04-12T16:59:47.222Z,9.23
2018-04-12T17:02:14.812Z,10.07
2018-04-12T17:04:42.390Z,12.47
2018-04-12T17:07:10.747Z,14.10
2018-04-12T17:09:38.328Z,10.17
2018-04-12T17:12:05.917Z,9.93
2018-04-12T17:14:33.465Z,11.57
2018-04-12T17:17:01.067Z,10.07
2018-04-12T17:19:28.650Z,10.77
2018-04-12T17:21:56.276Z,11.83
2018-04-12T17:24:23.860Z,10.50
2018-04-12T17:26:51.622Z,10.43
2018-04-12T17:29:19.359Z,10.93
2018-04-12T17:31:48.551Z,11.37
2018-04-12T17:34:16.118Z,15.70
2018-04-12T17:36:43.705Z,12.83
2018-04-12T17:39:11.263Z,16.80
2018-04-12T17:41:38.847Z,17.80
2018-04-12T17:44:06.474Z,17.33
2018-04-12T17:46:34.044Z,16.60
2018-04-12T17:49:01.597Z,20.33
2018-04-12T17:51:29.199Z,15.60
2018-04-12T17:53:57.562Z,15.20
2018-04-12T17:56:25.163Z,17.83
2018-04-12T17:58:52.725Z,18.23
2018-04-12T18:01:20.288Z,20.03
2018-04-12T18:03:48.019Z,18.17
2018-04-12T18:06:15.569Z,15.30
2018-04-12T18:08:43.149Z,18.60
2018-04-12T18:11:11.506Z,16.97
2018-04-12T18:13:39.087Z,19.47
2018-04-12T18:16:14.050Z,17.97
2018-04-12T18:18:49.327Z,18.80
2018-04-12T18:21:26.538Z,21.30
2018-04-12T18:24:02.562Z,19.63
2018-04-12T18:26:40.682Z,18.73
2018-04-12T18:29:15.408Z,16.70
2018-04-12T18:31:50.165Z,17.10
2018-04-12T18:34:26.352Z,14.63
2018-04-12T18:37:00.790Z,16.23
2018-04-12T18:39:35.887Z,23.67
2018-04-12T18:42:12.493Z,18.97
2018-04-12T18:44:48.044Z,16.90
2018-04-12T18:47:21.860Z,15.93
2018-04-12T18:52:55.728Z,18.23
2018-04-12T18:55:26.071Z,15.50
2018-04-12T18:57:54.379Z,15.90
2018-04-12T19:00:22.583Z,15.53
2018-04-12T19:02:50.376Z,16.17
2018-04-12T19:05:17.947Z,17.30
2018-04-12T19:10:38.679Z,18.87
2018-04-12T19:13:07.025Z,15.70
2018-04-12T19:15:34.814Z,19.43
2018-04-12T19:18:03.147Z,19.00
2018-04-12T19:20:31.466Z,17.63
2018-04-12T19:22:59.048Z,19.97
2018-04-12T19:25:26.639Z,19.00
2018-04-12T19:27:54.276Z,15.60
2018-04-12T19:30:21.976Z,21.00
2018-04-12T19:32:49.565Z,18.30
2018-04-12T19:35:18.067Z,17.40
2018-04-12T19:37:45.661Z,19.33
2018-04-12T19:40:13.317Z,18.00
2018-04-12T19:42:40.921Z,17.20
2018-04-12T19:45:08.487Z,18.83
2018-04-12T19:47:36.113Z,17.20
2018-04-12T19:50:03.735Z,18.20
2018-04-12T19:52:31.331Z,19.37
2018-04-12T19:54:58.961Z,18.23
2018-04-12T19:57:26.544Z,23.80
2018-04-12T19:59:54.186Z,21.47
2018-04-12T20:02:22.335Z,22.47
2018-04-12T20:04:50.678Z,25.20
2018-04-12T20:07:18.334Z,24.83
2018-04-12T20:09:46.424Z,21.67
2018-04-12T20:12:14.019Z,26.67
2018-04-12T20:14:41.657Z,22.17
2018-04-12T20:17:09.997Z,22.73
2018-04-12T20:19:37.591Z,24.17
2018-04-12T20:22:06.046Z,24.57
2018-04-12T20:24:33.648Z,27.33
2018-04-12T20:27:02.329Z,23.10
2018-04-12T20:29:30.677Z,23.33
2018-04-12T20:31:58.245Z,23.97
2018-04-12T20:34:26.605Z,20.70
2018-04-12T20:36:54.279Z,25.07
2018-04-12T20:39:21.873Z,22.33
2018-04-12T20:41:49.768Z,23.20
2018-04-12T20:44:17.404Z,23.30
2018-04-12T20:46:44.976Z,25.17
2018-04-12T20:49:12.587Z,22.50
2018-04-12T20:51:40.269Z,26.07
2018-04-12T20:54:08.608Z,23.30
2018-04-12T20:56:36.232Z,22.20
2018-04-12T20:59:03.934Z,21.67
2018-04-12T21:01:31.841Z,20.10
2018-04-12T21:04:00.215Z,24.30
2018-04-12T21:06:28.561Z,21.07
2018-04-12T21:08:56.166Z,21.87
2018-04-12T21:11:23.798Z,17.37
2018-04-12T21:13:51.471Z,18.77
2018-04-12T21:16:20.096Z,17.80
2018-04-12T21:18:47.675Z,20.67
2018-04-12T21:21:15.295Z,22.23
2018-04-12T21:23:42.881Z,22.37
2018-04-12T21:26:10.793Z,25.07
2018-04-12T21:28:38.428Z,20.33
2018-04-12T21:31:06.065Z,21.07
2018-04-12T21:33:34.212Z,22.07
2018-04-12T21:36:01.897Z,19.90
2018-04-12T21:38:29.475Z,22.37
2018-04-12T21:40:57.145Z,21.30
2018-04-12T21:43:24.739Z,20.97
2018-04-12T21:45:53.379Z,21.30
2018-04-12T21:48:20.994Z,21.90
2018-04-12T21:50:48.604Z,21.73
2018-04-12T21:53:16.262Z,24.50
2018-04-12T21:55:43.872Z,25.33
2018-04-12T21:58:12.272Z,24.83
2018-04-12T22:00:39.936Z,19.20
2018-04-12T22:03:07.548Z,26.97
2018-04-12T22:05:35.299Z,26.80
2018-04-12T22:08:02.888Z,24.77
2018-04-12T22:10:31.314Z,23.13
2018-04-12T22:12:58.912Z,22.57
2018-04-12T22:15:27.014Z,24.37
2018-04-12T22:17:54.631Z,25.53
2018-04-12T22:20:22.225Z,25.40
2018-04-12T22:22:50.270Z,27.23
2018-04-12T22:25:18.346Z,28.37
2018-04-12T22:27:47.286Z,27.20
2018-04-12T22:30:15.046Z,24.80
2018-04-12T22:32:42.625Z,29.67
2018-04-12T22:35:10.237Z,33.57
2018-04-12T22:37:38.667Z,30.77
2018-04-12T22:40:06.610Z,26.87
2018-04-12T22:42:34.195Z,28.67
2018-04-12T22:45:01.764Z,25.90
2018-04-12T22:47:29.628Z,27.13
2018-04-12T22:49:57.237Z,27.57
2018-04-12T22:52:24.869Z,24.50
2018-04-12T22:54:52.817Z,25.23
2018-04-12T22:57:20.370Z,27.20
2018-04-12T22:59:48.933Z,28.20
2018-04-12T23:02:16.525Z,25.47
2018-04-12T23:04:44.664Z,26.53
2018-04-12T23:07:12.311Z,28.97
2018-04-12T23:09:39.946Z,28.47
2018-04-12T23:12:08.299Z,28.23
2018-04-12T23:14:35.888Z,25.47
2018-04-12T23:17:04.257Z,33.83
2018-04-12T23:19:32.689Z,23.50
2018-04-12T23:22:00.280Z,28.17
2018-04-12T23:24:27.874Z,30.30
2018-04-12T23:26:56.373Z,25.53
2018-04-12T23:29:24.139Z,26.73
2018-04-12T23:31:52.008Z,26.50
2018-04-12T23:34:19.598Z,28.53
2018-04-12T23:36:47.168Z,28.63
2018-04-12T23:39:14.865Z,25.87
2018-04-12T23:41:43.198Z,31.90
2018-04-12T23:44:11.152Z,25.83
2018-04-12T23:46:38.712Z,28.90
2018-04-12T23:49:06.702Z,26.27
2018-04-12T23:51:34.313Z,30.70
2018-04-12T23:54:02.098Z,31.80
2018-04-12T23:56:29.814Z,27.67
2018-04-12T23:58:58.174Z,28.53
